createdAt,value
2023-05-02T00:00:49.952Z,20.80
2023-05-02T00:01:50.024Z,20.80
2023-05-02T00:02:50.198Z,20.79
2023-05-02T00:03:50.112Z,20.80
2023-05-02T00:04:50.015Z,20.80
2023-05-02T00:05:50.010Z,20.80
2023-05-02T00:06:50.143Z,20.80
2023-05-02T00:07:50.060Z,20.79
2023-05-02T00:08:50.064Z,20.79
2023-05-02T00:09:50.127Z,20.78
2023-05-02T00:10:50.118Z,20.79
2023-05-02T00:11:50.139Z,20.78
2023-05-02T00:12:50.174Z,20.78
2023-05-02T00:13:50.222Z,20.78
2023-05-02T00:14:50.220Z,20.75
2023-05-02T00:15:50.267Z,20.76
2023-05-02T00:16:50.247Z,20.76
2023-05-02T00:17:50.282Z,20.75
2023-05-02T00:18:50.275Z,20.72
2023-05-02T00:19:50.270Z,20.74
2023-05-02T00:20:50.266Z,20.74
2023-05-02T00:21:50.331Z,20.71
2023-05-02T00:22:50.300Z,20.71
2023-05-02T00:23:50.340Z,20.74
2023-05-02T00:24:50.329Z,20.69
2023-05-02T00:25:50.371Z,20.67
2023-05-02T00:26:50.375Z,20.69
2023-05-02T00:27:50.408Z,20.67
2023-05-02T00:28:50.430Z,20.67
2023-05-02T00:29:50.448Z,20.69
2023-05-02T00:30:50.474Z,20.67
2023-05-02T00:31:50.467Z,20.67
2023-05-02T00:32:50.601Z,20.64
2023-05-02T00:33:50.509Z,20.62
2023-05-02T00:34:50.529Z,20.64
2023-05-02T00:35:50.533Z,20.61
2023-05-02T00:36:50.575Z,20.61
2023-05-02T00:37:50.632Z,20.62
2023-05-02T00:38:50.643Z,20.59
2023-05-02T00:39:50.657Z,20.62
2023-05-02T00:40:50.666Z,20.62
2023-05-02T00:41:50.670Z,20.64
2023-05-02T00:42:50.696Z,20.65
2023-05-02T00:43:50.714Z,20.67
2023-05-02T00:44:50.724Z,20.67
2023-05-02T00:45:50.728Z,20.69
2023-05-02T00:46:50.755Z,20.68
2023-05-02T00:47:50.784Z,20.68
2023-05-02T00:48:50.819Z,20.68
2023-05-02T00:49:50.761Z,20.69
2023-05-02T00:50:50.732Z,20.68
2023-05-02T00:51:50.765Z,20.69
2023-05-02T00:52:50.775Z,20.71
2023-05-02T00:53:50.797Z,20.72
2023-05-02T00:54:50.841Z,20.72
2023-05-02T00:55:50.835Z,20.74
2023-05-02T00:56:50.841Z,20.74
2023-05-02T00:57:50.852Z,20.74
2023-05-02T00:58:50.857Z,20.71
2023-05-02T00:59:50.851Z,20.71
2023-05-02T01:00:50.866Z,20.68
2023-05-02T01:01:50.970Z,20.71
2023-05-02T01:02:51.042Z,20.69
2023-05-02T01:03:51.133Z,20.69
2023-05-02T01:04:50.950Z,20.65
2023-05-02T01:05:50.921Z,20.65
2023-05-02T01:06:51.022Z,20.64
2023-05-02T01:07:50.983Z,20.61
2023-05-02T01:08:51.008Z,20.59
2023-05-02T01:09:51.028Z,20.56
2023-05-02T01:10:51.013Z,20.56
2023-05-02T01:11:51.040Z,20.52
2023-05-02T01:12:51.069Z,20.51
2023-05-02T01:13:51.091Z,20.52
2023-05-02T01:14:51.138Z,20.52
2023-05-02T01:15:51.234Z,20.48
2023-05-02T01:16:51.159Z,20.51
2023-05-02T01:17:51.253Z,20.52
2023-05-02T01:18:51.201Z,20.49
2023-05-02T01:19:51.260Z,20.49
2023-05-02T01:20:51.243Z,20.49
2023-05-02T01:21:51.261Z,20.48
2023-05-02T01:22:51.277Z,20.49
2023-05-02T01:23:51.282Z,20.48
2023-05-02T01:24:51.325Z,20.49
2023-05-02T01:25:51.352Z,20.48
2023-05-02T01:26:51.363Z,20.45
2023-05-02T01:27:51.427Z,20.47
2023-05-02T01:28:51.444Z,20.44
2023-05-02T01:29:51.503Z,20.44
2023-05-02T01:30:51.490Z,20.44
2023-05-02T01:31:52.481Z,20.47
2023-05-02T01:32:51.641Z,20.45
2023-05-02T01:33:51.575Z,20.44
2023-05-02T01:34:51.647Z,20.45
2023-05-02T01:35:51.671Z,20.44
2023-05-02T01:36:51.684Z,20.47
2023-05-02T01:37:51.707Z,20.47
2023-05-02T01:38:51.734Z,20.44
2023-05-02T01:39:51.770Z,20.45
2023-05-02T01:40:51.799Z,20.44
2023-05-02T01:41:51.803Z,20.41
2023-05-02T01:42:51.811Z,20.44
2023-05-02T01:43:51.858Z,20.44
2023-05-02T01:44:51.900Z,20.44
2023-05-02T01:45:51.931Z,20.44
2023-05-02T01:46:52.032Z,20.44
2023-05-02T01:47:51.958Z,20.45
2023-05-02T01:48:51.986Z,20.42
2023-05-02T01:49:52.021Z,20.42
2023-05-02T01:50:52.035Z,20.44
2023-05-02T01:51:52.086Z,20.44
2023-05-02T01:52:52.123Z,20.41
2023-05-02T01:53:52.129Z,20.40
2023-05-02T01:54:52.167Z,20.40
2023-05-02T01:55:52.186Z,20.42
2023-05-02T01:56:52.213Z,20.41
2023-05-02T01:57:52.216Z,20.40
2023-05-02T01:58:52.261Z,20.40
2023-05-02T01:59:52.303Z,20.40
2023-05-02T02:00:52.426Z,20.37
2023-05-02T02:01:52.368Z,20.38
2023-05-02T02:02:52.427Z,20.40
2023-05-02T02:03:52.499Z,20.40
2023-05-02T02:04:52.504Z,20.37
2023-05-02T02:05:52.523Z,20.38
2023-05-02T02:06:52.664Z,20.37
2023-05-02T02:07:52.558Z,20.40
2023-05-02T02:08:52.589Z,20.37
2023-05-02T02:09:52.612Z,20.41
2023-05-02T02:10:52.645Z,20.38
2023-05-02T02:11:52.682Z,20.35
2023-05-02T02:12:52.696Z,20.37
2023-05-02T02:13:52.756Z,20.37
2023-05-02T02:14:52.779Z,20.35
2023-05-02T02:15:52.813Z,20.35
2023-05-02T02:16:52.880Z,20.34
2023-05-02T02:17:52.929Z,20.32
2023-05-02T02:18:52.925Z,20.32
2023-05-02T02:19:52.974Z,20.32
2023-05-02T02:20:52.989Z,20.32
2023-05-02T02:21:53.073Z,20.31
2023-05-02T02:22:53.075Z,20.34
2023-05-02T02:23:53.123Z,20.31
2023-05-02T02:24:54.400Z,20.32
2023-05-02T02:25:53.199Z,20.32
2023-05-02T02:26:53.239Z,20.34
2023-05-02T02:27:53.274Z,20.32
2023-05-02T02:28:53.315Z,20.34
2023-05-02T02:29:53.394Z,20.35
2023-05-02T02:30:53.429Z,20.32
2023-05-02T02:31:53.418Z,20.34
2023-05-02T02:32:53.498Z,20.32
2023-05-02T02:33:53.441Z,20.31
2023-05-02T02:34:53.509Z,20.31
2023-05-02T02:35:53.536Z,20.31
2023-05-02T02:36:53.606Z,20.32
2023-05-02T02:37:53.648Z,20.31
2023-05-02T02:38:53.659Z,20.32
2023-05-02T02:39:53.702Z,20.32
2023-05-02T02:40:53.783Z,20.31
2023-05-02T02:41:53.778Z,20.30
2023-05-02T02:42:53.832Z,20.32
2023-05-02T02:43:53.878Z,20.30
2023-05-02T02:44:53.902Z,20.31
2023-05-02T02:45:53.996Z,20.30
2023-05-02T02:46:53.982Z,20.30
2023-05-02T02:47:54.116Z,20.30
2023-05-02T02:48:54.090Z,20.30
2023-05-02T02:49:54.104Z,20.30
2023-05-02T02:50:54.144Z,20.27
2023-05-02T02:51:54.212Z,20.28
2023-05-02T02:52:54.234Z,20.24
2023-05-02T02:53:54.270Z,20.23
2023-05-02T02:54:54.331Z,20.25
2023-05-02T02:55:54.385Z,20.23
2023-05-02T02:56:54.409Z,20.21
2023-05-02T02:57:54.469Z,20.20
2023-05-02T02:58:54.485Z,20.21
2023-05-02T02:59:54.564Z,20.20
2023-05-02T03:00:54.605Z,20.24
2023-05-02T03:01:54.658Z,20.24
2023-05-02T03:02:54.704Z,20.23
2023-05-02T03:03:54.856Z,20.24
2023-05-02T03:04:54.792Z,20.24
2023-05-02T03:05:54.818Z,20.24
2023-05-02T03:06:54.942Z,20.24
2023-05-02T03:07:54.908Z,20.23
2023-05-02T03:08:54.941Z,20.24
2023-05-02T03:09:55.028Z,20.20
2023-05-02T03:10:55.056Z,20.23
2023-05-02T03:11:55.108Z,20.25
2023-05-02T03:12:55.161Z,20.24
2023-05-02T03:13:55.170Z,20.27
2023-05-02T03:14:55.230Z,20.27
2023-05-02T03:15:55.378Z,20.27
2023-05-02T03:16:55.299Z,20.27
2023-05-02T03:17:55.394Z,20.27
2023-05-02T03:18:55.370Z,20.28
2023-05-02T03:19:55.459Z,20.31
2023-05-02T03:20:55.437Z,20.27
2023-05-02T03:21:55.515Z,20.28
2023-05-02T03:22:55.529Z,20.30
2023-05-02T03:23:55.592Z,20.30
2023-05-02T03:24:55.607Z,20.31
2023-05-02T03:25:55.646Z,20.31
2023-05-02T03:26:55.708Z,20.28
2023-05-02T03:27:55.702Z,20.30
2023-05-02T03:28:55.769Z,20.30
2023-05-02T03:29:55.851Z,20.30
2023-05-02T03:30:55.808Z,20.28
2023-05-02T03:31:55.944Z,20.30
2023-05-02T03:32:55.938Z,20.30
2023-05-02T03:33:55.896Z,20.32
2023-05-02T03:34:55.957Z,20.31
2023-05-02T03:35:55.982Z,20.32
2023-05-02T03:36:56.005Z,20.34
2023-05-02T03:37:56.020Z,20.35
2023-05-02T03:38:56.059Z,20.35
2023-05-02T03:39:56.065Z,20.37
2023-05-02T03:40:56.110Z,20.35
2023-05-02T03:41:56.139Z,20.37
2023-05-02T03:42:56.179Z,20.38
2023-05-02T03:43:56.217Z,20.38
2023-05-02T03:44:56.253Z,20.38
2023-05-02T03:45:56.280Z,20.38
2023-05-02T03:46:56.371Z,20.38
2023-05-02T03:47:56.395Z,20.38
2023-05-02T03:48:56.355Z,20.37
2023-05-02T03:49:56.397Z,20.40
2023-05-02T03:50:56.440Z,20.34
2023-05-02T03:51:56.458Z,20.35
2023-05-02T03:52:56.630Z,20.31
2023-05-02T03:53:56.551Z,20.32
2023-05-02T03:54:56.616Z,20.31
2023-05-02T03:55:56.663Z,20.30
2023-05-02T03:56:56.697Z,20.30
2023-05-02T03:57:56.757Z,20.25
2023-05-02T03:58:56.838Z,20.24
2023-05-02T03:59:56.960Z,20.24
2023-05-02T04:00:56.927Z,20.24
2023-05-02T04:01:56.998Z,20.25
2023-05-02T04:02:57.094Z,20.25
2023-05-02T04:03:57.204Z,20.25
2023-05-02T04:04:57.112Z,20.25
2023-05-02T04:05:57.171Z,20.25
2023-05-02T04:06:57.198Z,20.25
2023-05-02T04:07:57.251Z,20.27
2023-05-02T04:08:57.270Z,20.25
2023-05-02T04:09:57.445Z,20.28
2023-05-02T04:10:57.385Z,20.28
2023-05-02T04:11:57.449Z,20.27
2023-05-02T04:12:57.468Z,20.28
2023-05-02T04:13:57.487Z,20.25
2023-05-02T04:14:57.564Z,20.27
2023-05-02T04:15:57.563Z,20.31
2023-05-02T04:16:57.657Z,20.30
2023-05-02T04:17:57.645Z,20.30
2023-05-02T04:18:57.725Z,20.30
2023-05-02T04:19:57.901Z,20.30
2023-05-02T04:20:57.772Z,20.31
2023-05-02T04:21:57.821Z,20.32
2023-05-02T04:22:57.825Z,20.30
2023-05-02T04:23:57.865Z,20.32
2023-05-02T04:24:58.051Z,20.31
2023-05-02T04:25:57.976Z,20.34
2023-05-02T04:26:58.002Z,20.31
2023-05-02T04:27:58.060Z,20.27
2023-05-02T04:28:58.072Z,20.31
2023-05-02T04:29:58.610Z,20.28
2023-05-02T04:30:58.184Z,20.28
2023-05-02T04:31:58.194Z,20.30
2023-05-02T04:32:58.270Z,20.30
2023-05-02T04:33:58.303Z,20.32
2023-05-02T04:34:58.309Z,20.31
2023-05-02T04:35:58.367Z,20.32
2023-05-02T04:36:58.371Z,20.34
2023-05-02T04:37:58.428Z,20.32
2023-05-02T04:38:58.448Z,20.35
2023-05-02T04:39:58.590Z,20.37
2023-05-02T04:40:58.518Z,20.31
2023-05-02T04:41:58.546Z,20.34
2023-05-02T04:42:58.589Z,20.34
2023-05-02T04:43:58.638Z,20.34
2023-05-02T04:44:58.652Z,20.34
2023-05-02T04:45:58.701Z,20.32
2023-05-02T04:46:58.692Z,20.32
2023-05-02T04:47:58.768Z,20.31
2023-05-02T04:48:58.805Z,20.30
2023-05-02T04:49:58.995Z,20.30
2023-05-02T04:50:58.873Z,20.27
2023-05-02T04:51:58.921Z,20.31
2023-05-02T04:52:58.921Z,20.27
2023-05-02T04:53:58.999Z,20.28
2023-05-02T04:54:59.094Z,20.27
2023-05-02T04:55:59.092Z,20.27
2023-05-02T04:56:59.134Z,20.27
2023-05-02T04:57:59.186Z,20.27
2023-05-02T04:58:59.254Z,20.27
2023-05-02T04:59:59.548Z,20.28
2023-05-02T05:00:59.346Z,20.24
2023-05-02T05:01:59.485Z,20.28
2023-05-02T05:03:01.723Z,20.24
2023-05-02T05:03:59.781Z,20.24
2023-05-02T05:04:59.759Z,20.24
2023-05-02T05:05:59.835Z,20.23
2023-05-02T05:06:59.853Z,20.20
2023-05-02T05:07:59.950Z,20.20
2023-05-02T05:08:59.929Z,20.21
2023-05-02T05:10:00.508Z,20.20
2023-05-02T05:11:00.024Z,20.21
2023-05-02T05:12:00.111Z,20.20
2023-05-02T05:13:00.200Z,20.21
2023-05-02T05:14:00.159Z,20.23
2023-05-02T05:15:00.218Z,20.24
2023-05-02T05:16:00.310Z,20.27
2023-05-02T05:17:00.281Z,20.28
2023-05-02T05:18:00.351Z,20.30
2023-05-02T05:19:00.350Z,20.31
2023-05-02T05:20:00.649Z,20.30
2023-05-02T05:21:00.418Z,20.34
2023-05-02T05:22:00.449Z,20.34
2023-05-02T05:23:00.446Z,20.35
2023-05-02T05:24:00.520Z,20.35
2023-05-02T05:25:00.525Z,20.37
2023-05-02T05:26:00.520Z,20.38
2023-05-02T05:27:00.556Z,20.38
2023-05-02T05:28:00.598Z,20.38
2023-05-02T05:29:00.600Z,20.38
2023-05-02T05:30:00.965Z,20.41
2023-05-02T05:31:00.618Z,20.40
2023-05-02T05:32:00.723Z,20.41
2023-05-02T05:33:00.762Z,20.44
2023-05-02T05:34:00.776Z,20.44
2023-05-02T05:35:00.711Z,20.45
2023-05-02T05:36:00.748Z,20.45
2023-05-02T05:37:00.738Z,20.48
2023-05-02T05:38:01.006Z,20.51
2023-05-02T05:39:00.787Z,20.54
2023-05-02T05:40:01.083Z,20.59
2023-05-02T05:41:01.528Z,20.65
2023-05-02T05:42:00.924Z,20.72
2023-05-02T05:43:00.971Z,20.75
2023-05-02T05:44:00.977Z,20.83
2023-05-02T05:45:01.011Z,20.93
2023-05-02T05:46:00.969Z,20.99
2023-05-02T05:47:01.056Z,21.10
2023-05-02T05:48:01.023Z,21.17
2023-05-02T05:49:01.037Z,21.24
2023-05-02T05:50:01.389Z,21.31
2023-05-02T05:51:01.133Z,21.40
2023-05-02T05:52:01.182Z,21.50
2023-05-02T05:53:01.227Z,21.55
2023-05-02T05:54:01.260Z,21.64
2023-05-02T05:55:01.868Z,21.69
2023-05-02T05:56:01.343Z,21.77
2023-05-02T05:57:01.424Z,21.81
2023-05-02T05:58:01.394Z,21.92
2023-05-02T05:59:01.420Z,22.02
2023-05-02T06:00:01.820Z,22.11
2023-05-02T06:01:01.666Z,22.17
2023-05-02T06:02:01.495Z,22.26
2023-05-02T06:03:01.672Z,22.35
2023-05-02T06:04:01.643Z,22.42
2023-05-02T06:05:02.113Z,22.49
2023-05-02T06:06:01.842Z,22.54
2023-05-02T06:07:01.721Z,22.61
2023-05-02T06:08:01.752Z,22.67
2023-05-02T06:09:01.817Z,22.72
2023-05-02T06:10:02.104Z,22.80
2023-05-02T06:11:01.814Z,22.86
2023-05-02T06:12:01.849Z,22.91
2023-05-02T06:13:01.827Z,22.99
2023-05-02T06:14:01.869Z,23.01
2023-05-02T06:15:01.918Z,23.07
2023-05-02T06:16:01.998Z,23.15
2023-05-02T06:17:02.017Z,23.18
2023-05-02T06:18:02.005Z,23.22
2023-05-02T06:19:01.964Z,23.26
2023-05-02T06:20:02.699Z,23.26
2023-05-02T06:21:02.005Z,23.33
2023-05-02T06:22:02.058Z,23.38
2023-05-02T06:23:02.078Z,23.41
2023-05-02T06:24:02.156Z,23.43
2023-05-02T06:25:02.185Z,23.46
2023-05-02T06:26:02.238Z,23.48
2023-05-02T06:27:02.307Z,23.52
2023-05-02T06:28:02.307Z,23.56
2023-05-02T06:29:02.385Z,23.59
2023-05-02T06:30:02.837Z,23.59
2023-05-02T06:31:02.575Z,23.64
2023-05-02T06:32:02.604Z,23.66
2023-05-02T06:33:02.626Z,23.70
2023-05-02T06:34:02.622Z,23.73
2023-05-02T06:35:02.698Z,23.76
2023-05-02T06:36:02.670Z,23.81
2023-05-02T06:37:02.685Z,23.80
2023-05-02T06:38:02.738Z,23.80
2023-05-02T06:39:02.765Z,23.81
2023-05-02T06:40:03.302Z,23.81
2023-05-02T06:41:02.867Z,23.85
2023-05-02T06:42:02.928Z,23.85
2023-05-02T06:43:02.905Z,23.91
2023-05-02T06:44:02.897Z,23.96
2023-05-02T06:45:02.984Z,23.88
2023-05-02T06:46:02.937Z,23.94
2023-05-02T06:47:03.057Z,23.96
2023-05-02T06:48:03.017Z,23.93
2023-05-02T06:49:03.180Z,23.91
2023-05-02T06:50:03.215Z,23.87
2023-05-02T06:51:03.095Z,23.88
2023-05-02T06:52:03.129Z,23.87
2023-05-02T06:53:03.116Z,23.88
2023-05-02T06:54:03.157Z,23.91
2023-05-02T06:55:03.142Z,23.90
2023-05-02T06:56:03.231Z,23.90
2023-05-02T06:57:03.213Z,23.88
2023-05-02T06:58:03.240Z,23.87
2023-05-02T06:59:03.333Z,23.87
2023-05-02T07:00:03.866Z,23.88
2023-05-02T07:01:03.436Z,23.90
2023-05-02T07:02:05.444Z,23.90
2023-05-02T07:03:05.175Z,23.88
2023-05-02T07:04:03.489Z,23.88
2023-05-02T07:05:03.473Z,23.88
2023-05-02T07:06:03.524Z,23.93
2023-05-02T07:07:03.511Z,23.93
2023-05-02T07:08:03.564Z,23.93
2023-05-02T07:09:03.564Z,23.96
2023-05-02T07:10:04.078Z,23.97
2023-05-02T07:11:03.637Z,23.99
2023-05-02T07:12:06.032Z,23.99
2023-05-02T07:13:03.602Z,24.01
2023-05-02T07:14:03.616Z,24.03
2023-05-02T07:15:03.634Z,24.03
2023-05-02T07:16:03.658Z,24.07
2023-05-02T07:17:03.667Z,24.08
2023-05-02T07:18:03.655Z,24.07
2023-05-02T07:19:03.595Z,24.08
2023-05-02T07:20:03.931Z,24.10
2023-05-02T07:21:03.552Z,24.14
2023-05-02T07:22:03.568Z,24.11
2023-05-02T07:23:03.562Z,24.12
2023-05-02T07:24:03.535Z,24.11
2023-05-02T07:25:03.576Z,24.14
2023-05-02T07:26:06.129Z,24.12
2023-05-02T07:27:03.518Z,24.14
2023-05-02T07:28:03.546Z,24.15
2023-05-02T07:29:03.548Z,24.18
2023-05-02T07:30:03.775Z,24.17
2023-05-02T07:31:03.494Z,24.20
2023-05-02T07:32:03.546Z,24.20
2023-05-02T07:33:03.486Z,24.21
2023-05-02T07:34:03.496Z,24.20
2023-05-02T07:35:03.465Z,24.24
2023-05-02T07:36:03.450Z,24.22
2023-05-02T07:37:03.459Z,24.21
2023-05-02T07:38:03.449Z,24.27
2023-05-02T07:39:03.431Z,24.24
2023-05-02T07:40:03.782Z,24.24
2023-05-02T07:41:03.429Z,24.22
2023-05-02T07:42:03.398Z,24.22
2023-05-02T07:43:03.423Z,24.18
2023-05-02T07:44:03.874Z,24.24
2023-05-02T07:45:03.567Z,24.25
2023-05-02T07:46:03.542Z,24.27
2023-05-02T07:47:03.382Z,24.32
2023-05-02T07:48:03.402Z,24.24
2023-05-02T07:49:03.756Z,24.20
2023-05-02T07:50:03.761Z,24.24
2023-05-02T07:51:03.353Z,24.21
2023-05-02T07:52:03.333Z,24.25
2023-05-02T07:53:03.385Z,24.25
2023-05-02T07:54:03.345Z,24.30
2023-05-02T07:55:03.330Z,24.30
2023-05-02T07:56:03.307Z,24.32
2023-05-02T07:57:03.363Z,24.35
2023-05-02T07:58:03.343Z,24.38
2023-05-02T07:59:05.417Z,24.42
2023-05-02T08:00:03.548Z,24.42
2023-05-02T08:01:03.269Z,24.47
2023-05-02T08:02:03.265Z,24.52
2023-05-02T08:03:03.427Z,24.54
2023-05-02T08:04:03.411Z,24.54
2023-05-02T08:05:03.634Z,24.59
2023-05-02T08:06:03.410Z,24.62
2023-05-02T08:07:03.408Z,24.63
2023-05-02T08:08:03.433Z,24.66
2023-05-02T08:09:03.460Z,24.68
2023-05-02T08:10:03.809Z,24.70
2023-05-02T08:11:03.499Z,24.73
2023-05-02T08:12:03.537Z,24.75
2023-05-02T08:13:03.524Z,24.73
2023-05-02T08:14:03.554Z,24.78
2023-05-02T08:15:03.573Z,24.75
2023-05-02T08:16:03.623Z,24.80
2023-05-02T08:17:03.566Z,24.80
2023-05-02T08:18:03.617Z,24.82
2023-05-02T08:19:03.617Z,24.86
2023-05-02T08:20:03.667Z,24.87
2023-05-02T08:21:03.573Z,24.93
2023-05-02T08:22:03.577Z,24.94
2023-05-02T08:23:03.624Z,24.97
2023-05-02T08:24:03.670Z,25.03
2023-05-02T08:25:03.679Z,24.97
2023-05-02T08:26:03.634Z,25.03
2023-05-02T08:27:03.677Z,25.06
2023-05-02T08:28:03.693Z,25.03
2023-05-02T08:29:03.664Z,25.07
2023-05-02T08:30:03.880Z,25.07
2023-05-02T08:31:03.741Z,25.06
2023-05-02T08:32:03.808Z,25.03
2023-05-02T08:33:03.780Z,25.03
2023-05-02T08:34:03.756Z,25.05
2023-05-02T08:35:03.812Z,25.05
2023-05-02T08:36:03.795Z,25.06
2023-05-02T08:37:03.787Z,25.06
2023-05-02T08:38:03.763Z,25.05
2023-05-02T08:39:03.813Z,25.03
2023-05-02T08:40:04.047Z,25.02
2023-05-02T08:41:03.834Z,25.02
2023-05-02T08:42:03.835Z,24.97
2023-05-02T08:43:03.819Z,25.02
2023-05-02T08:44:03.826Z,25.00
2023-05-02T08:45:04.092Z,24.99
2023-05-02T08:46:03.853Z,24.97
2023-05-02T08:47:03.922Z,24.93
2023-05-02T08:48:03.900Z,24.97
2023-05-02T08:49:03.865Z,24.94
2023-05-02T08:50:04.063Z,24.90
2023-05-02T08:51:04.123Z,24.86
2023-05-02T08:52:04.048Z,24.79
2023-05-02T08:53:03.990Z,24.69
2023-05-02T08:54:04.054Z,24.62
2023-05-02T08:55:04.364Z,24.56
2023-05-02T08:56:04.113Z,24.52
2023-05-02T08:57:04.155Z,24.51
2023-05-02T08:58:04.245Z,24.51
2023-05-02T08:59:04.272Z,24.49
2023-05-02T09:00:04.301Z,24.54
2023-05-02T09:01:04.391Z,24.55
2023-05-02T09:02:04.414Z,24.55
2023-05-02T09:03:04.446Z,24.56
2023-05-02T09:04:04.420Z,24.63
2023-05-02T09:05:06.147Z,24.72
2023-05-02T09:06:04.506Z,24.76
2023-05-02T09:07:04.520Z,24.80
2023-05-02T09:08:04.580Z,24.86
2023-05-02T09:09:04.622Z,24.91
2023-05-02T09:10:04.650Z,25.00
2023-05-02T09:11:04.716Z,24.99
2023-05-02T09:12:04.717Z,25.05
2023-05-02T09:13:04.784Z,25.03
2023-05-02T09:14:04.836Z,25.09
2023-05-02T09:15:04.843Z,25.10
2023-05-02T09:16:04.855Z,25.09
2023-05-02T09:17:04.955Z,25.09
2023-05-02T09:18:04.971Z,25.11
2023-05-02T09:19:04.932Z,25.13
2023-05-02T09:20:04.938Z,25.11
2023-05-02T09:21:05.084Z,25.14
2023-05-02T09:22:04.959Z,25.16
2023-05-02T09:23:04.960Z,25.14
2023-05-02T09:24:04.988Z,25.20
2023-05-02T09:25:05.002Z,25.23
2023-05-02T09:26:05.096Z,25.26
2023-05-02T09:27:05.086Z,25.30
2023-05-02T09:28:05.071Z,25.34
2023-05-02T09:29:05.053Z,25.42
2023-05-02T09:30:05.103Z,25.44
2023-05-02T09:31:05.114Z,25.45
2023-05-02T09:32:06.153Z,25.41
2023-05-02T09:33:05.269Z,25.42
2023-05-02T09:34:05.230Z,25.42
2023-05-02T09:35:05.268Z,25.44
2023-05-02T09:36:05.340Z,25.45
2023-05-02T09:37:05.425Z,25.44
2023-05-02T09:38:05.404Z,25.47
2023-05-02T09:39:05.478Z,25.42
2023-05-02T09:40:05.491Z,25.47
2023-05-02T09:41:05.684Z,25.45
2023-05-02T09:42:05.543Z,25.47
2023-05-02T09:43:05.575Z,25.47
2023-05-02T09:44:05.653Z,25.52
2023-05-02T09:45:05.570Z,25.51
2023-05-02T09:46:06.157Z,25.49
2023-05-02T09:47:05.651Z,25.51
2023-05-02T09:48:05.680Z,25.54
2023-05-02T09:49:05.712Z,25.52
2023-05-02T09:50:05.764Z,25.54
2023-05-02T09:51:05.743Z,25.57
2023-05-02T09:52:05.763Z,25.55
2023-05-02T09:53:06.097Z,25.55
2023-05-02T09:54:05.798Z,25.54
2023-05-02T09:55:05.845Z,25.55
2023-05-02T09:56:05.912Z,25.55
2023-05-02T09:57:05.919Z,25.54
2023-05-02T09:58:05.941Z,25.52
2023-05-02T09:59:05.992Z,25.52
2023-05-02T10:00:06.015Z,25.51
2023-05-02T10:01:06.147Z,25.49
2023-05-02T10:02:06.117Z,25.48
2023-05-02T10:03:06.221Z,25.49
2023-05-02T10:04:06.230Z,25.49
2023-05-02T10:05:06.240Z,25.49
2023-05-02T10:06:06.363Z,25.51
2023-05-02T10:07:06.387Z,25.51
2023-05-02T10:08:06.420Z,25.51
2023-05-02T10:09:06.445Z,25.51
2023-05-02T10:10:06.482Z,25.48
2023-05-02T10:11:06.534Z,25.49
2023-05-02T10:12:06.600Z,25.49
2023-05-02T10:13:06.644Z,25.48
2023-05-02T10:14:06.666Z,25.48
2023-05-02T10:15:06.782Z,25.45
2023-05-02T10:16:06.799Z,25.45
2023-05-02T10:17:06.850Z,25.45
2023-05-02T10:18:06.932Z,25.45
2023-05-02T10:19:06.913Z,25.45
2023-05-02T10:20:07.028Z,25.44
2023-05-02T10:21:07.023Z,25.42
2023-05-02T10:22:07.086Z,25.45
2023-05-02T10:23:07.123Z,25.42
2023-05-02T10:24:07.184Z,25.41
2023-05-02T10:25:07.223Z,25.42
2023-05-02T10:26:07.273Z,25.42
2023-05-02T10:27:07.293Z,25.42
2023-05-02T10:28:07.302Z,25.41
2023-05-02T10:29:07.371Z,25.41
2023-05-02T10:30:07.441Z,25.44
2023-05-02T10:31:07.504Z,25.40
2023-05-02T10:32:07.556Z,25.40
2023-05-02T10:33:07.620Z,25.41
2023-05-02T10:34:07.629Z,25.41
2023-05-02T10:35:07.667Z,25.44
2023-05-02T10:36:08.141Z,25.41
2023-05-02T10:37:07.764Z,25.38
2023-05-02T10:38:07.758Z,25.37
2023-05-02T10:39:07.804Z,25.37
2023-05-02T10:40:07.899Z,25.44
2023-05-02T10:41:08.111Z,25.48
2023-05-02T10:42:07.931Z,25.58
2023-05-02T10:43:07.959Z,25.71
2023-05-02T10:44:07.972Z,25.75
2023-05-02T10:45:07.983Z,25.82
2023-05-02T10:46:08.040Z,25.89
2023-05-02T10:47:08.130Z,25.96
2023-05-02T10:48:08.169Z,26.03
2023-05-02T10:49:08.201Z,26.04
2023-05-02T10:50:08.231Z,26.06
2023-05-02T10:51:08.304Z,26.06
2023-05-02T10:52:08.385Z,26.07
2023-05-02T10:53:08.406Z,26.10
2023-05-02T10:54:08.452Z,26.09
2023-05-02T10:55:08.509Z,26.10
2023-05-02T10:56:08.555Z,26.09
2023-05-02T10:57:08.626Z,26.07
2023-05-02T10:58:08.656Z,26.09
2023-05-02T10:59:08.689Z,26.06
2023-05-02T11:00:08.743Z,26.07
2023-05-02T11:01:08.824Z,26.07
2023-05-02T11:02:08.879Z,26.09
2023-05-02T11:03:09.055Z,26.06
2023-05-02T11:04:08.947Z,26.09
2023-05-02T11:05:08.958Z,26.07
2023-05-02T11:06:09.094Z,26.10
2023-05-02T11:07:09.014Z,26.13
2023-05-02T11:08:09.029Z,26.13
2023-05-02T11:09:09.092Z,26.15
2023-05-02T11:10:09.098Z,26.17
2023-05-02T11:11:09.138Z,26.16
2023-05-02T11:12:09.138Z,26.10
2023-05-02T11:13:09.205Z,26.16
2023-05-02T11:14:09.176Z,26.19
2023-05-02T11:15:09.223Z,26.22
2023-05-02T11:16:09.279Z,26.23
2023-05-02T11:17:09.292Z,26.24
2023-05-02T11:18:09.445Z,26.26
2023-05-02T11:19:09.358Z,26.30
2023-05-02T11:20:09.407Z,26.26
2023-05-02T11:21:09.648Z,26.23
2023-05-02T11:22:09.507Z,26.24
2023-05-02T11:23:09.541Z,26.19
2023-05-02T11:24:09.575Z,26.19
2023-05-02T11:25:09.619Z,26.19
2023-05-02T11:26:09.613Z,26.17
2023-05-02T11:27:09.614Z,26.13
2023-05-02T11:28:09.580Z,26.13
2023-05-02T11:29:09.605Z,26.13
2023-05-02T11:30:09.847Z,26.07
2023-05-02T11:31:10.313Z,26.02
2023-05-02T11:32:09.691Z,25.99
2023-05-02T11:33:10.172Z,25.99
2023-05-02T11:34:09.716Z,25.96
2023-05-02T11:35:09.690Z,26.00
2023-05-02T11:36:10.170Z,25.95
2023-05-02T11:37:09.745Z,25.96
2023-05-02T11:38:09.804Z,25.96
2023-05-02T11:39:09.795Z,25.96
2023-05-02T11:40:09.812Z,25.95
2023-05-02T11:41:09.811Z,25.93
2023-05-02T11:42:09.859Z,25.91
2023-05-02T11:43:09.866Z,25.89
2023-05-02T11:44:09.918Z,25.83
2023-05-02T11:45:09.946Z,25.83
2023-05-02T11:46:09.991Z,25.81
2023-05-02T11:47:10.017Z,25.78
2023-05-02T11:48:10.106Z,25.78
2023-05-02T11:49:11.532Z,25.76
2023-05-02T11:50:10.187Z,25.76
2023-05-02T11:51:10.180Z,25.72
2023-05-02T11:52:10.241Z,25.71
2023-05-02T11:53:10.278Z,25.72
2023-05-02T11:54:10.348Z,25.69
2023-05-02T11:55:11.622Z,25.69
2023-05-02T11:56:10.372Z,25.69
2023-05-02T11:57:10.389Z,25.69
2023-05-02T11:58:10.456Z,25.69
2023-05-02T11:59:10.479Z,25.69
2023-05-02T12:00:10.524Z,25.68
2023-05-02T12:01:11.094Z,25.66
2023-05-02T12:02:10.585Z,25.61
2023-05-02T12:03:10.728Z,25.57
2023-05-02T12:04:10.710Z,25.51
2023-05-02T12:05:10.784Z,25.44
2023-05-02T12:06:10.901Z,25.38
2023-05-02T12:07:12.163Z,25.33
2023-05-02T12:08:10.775Z,25.27
2023-05-02T12:09:10.809Z,25.23
2023-05-02T12:10:11.049Z,25.20
2023-05-02T12:11:10.807Z,25.16
2023-05-02T12:12:10.808Z,25.09
2023-05-02T12:13:11.899Z,25.05
2023-05-02T12:14:10.896Z,24.99
2023-05-02T12:15:10.933Z,24.96
2023-05-02T12:16:11.053Z,24.94
2023-05-02T12:17:10.957Z,24.96
2023-05-02T12:18:11.010Z,24.93
2023-05-02T12:19:11.010Z,24.91
2023-05-02T12:20:11.059Z,24.93
2023-05-02T12:21:11.031Z,24.93
2023-05-02T12:22:11.036Z,24.99
2023-05-02T12:23:11.015Z,25.03
2023-05-02T12:24:11.101Z,25.06
2023-05-02T12:25:11.097Z,25.09
2023-05-02T12:26:11.097Z,25.09
2023-05-02T12:27:11.079Z,25.10
2023-05-02T12:28:11.112Z,25.10
2023-05-02T12:29:11.139Z,25.13
2023-05-02T12:30:11.143Z,25.10
2023-05-02T12:31:11.225Z,25.05
2023-05-02T12:32:11.141Z,25.07
2023-05-02T12:33:11.177Z,25.02
2023-05-02T12:34:11.168Z,25.00
2023-05-02T12:35:11.198Z,25.00
2023-05-02T12:36:11.230Z,24.93
2023-05-02T12:37:11.234Z,24.90
2023-05-02T12:38:11.272Z,24.86
2023-05-02T12:39:11.293Z,24.82
2023-05-02T12:40:11.346Z,24.79
2023-05-02T12:41:11.398Z,24.75
2023-05-02T12:42:11.435Z,24.72
2023-05-02T12:43:11.457Z,24.70
2023-05-02T12:44:11.540Z,24.66
2023-05-02T12:45:11.566Z,24.65
2023-05-02T12:46:11.623Z,24.62
2023-05-02T12:47:11.692Z,24.58
2023-05-02T12:48:11.741Z,24.58
2023-05-02T12:49:11.756Z,24.56
2023-05-02T12:50:11.829Z,24.54
2023-05-02T12:51:11.865Z,24.52
2023-05-02T12:52:11.859Z,24.51
2023-05-02T12:53:11.891Z,24.51